createdAt,value
2022-10-31T00:02:07.294Z,-0.52
2022-10-31T00:05:28.938Z,-0.43
2022-10-31T00:08:54.772Z,-0.44
2022-10-31T00:12:16.762Z,-0.47
2022-10-31T00:15:41.502Z,-0.47
2022-10-31T00:19:05.870Z,-0.53
2022-10-31T00:22:27.839Z,-0.44
2022-10-31T00:25:51.146Z,-0.51
2022-10-31T00:29:13.893Z,-0.42
2022-10-31T00:32:35.803Z,-0.42
2022-10-31T00:35:58.202Z,-0.41
2022-10-31T00:39:20.200Z,-0.42
2022-10-31T00:42:43.762Z,-0.44
2022-10-31T00:46:05.513Z,-0.52
2022-10-31T00:49:29.177Z,-0.44
2022-10-31T00:52:50.585Z,-0.45
2022-10-31T00:56:12.759Z,-0.48
2022-10-31T00:59:36.313Z,-0.50
2022-10-31T01:02:58.359Z,-0.51
2022-10-31T01:06:20.354Z,-0.55
2022-10-31T01:09:42.402Z,-0.54
2022-10-31T01:13:04.469Z,-0.55
2022-10-31T01:16:30.564Z,-0.76
2022-10-31T01:19:52.582Z,-0.56
2022-10-31T01:23:14.345Z,-0.54
2022-10-31T01:26:36.473Z,-0.51
2022-10-31T01:29:58.271Z,-0.49
2022-10-31T01:33:21.589Z,-0.49
2022-10-31T01:36:43.792Z,-0.48
2022-10-31T01:40:06.554Z,-0.67
2022-10-31T01:43:44.611Z,-0.50
2022-10-31T01:47:10.191Z,-0.43
2022-10-31T01:50:40.321Z,-0.43
2022-10-31T01:54:06.814Z,-0.54
2022-10-31T01:57:30.801Z,-0.43
2022-10-31T02:00:56.834Z,-0.42
2022-10-31T02:04:19.949Z,-0.42
2022-10-31T02:07:48.389Z,-0.39
2022-10-31T02:11:11.530Z,-0.43
2022-10-31T02:14:33.863Z,-0.39
2022-10-31T02:17:56.249Z,-0.41
2022-10-31T02:21:26.512Z,-0.57
2022-10-31T02:25:00.546Z,-0.54
2022-10-31T02:28:37.281Z,-0.50
2022-10-31T02:32:07.867Z,-0.47
2022-10-31T02:35:45.196Z,-0.46
2022-10-31T02:39:14.966Z,-0.47
2022-10-31T02:42:45.618Z,-0.46
2022-10-31T02:46:17.700Z,-0.43
2022-10-31T02:49:45.784Z,-0.42
2022-10-31T02:53:07.821Z,-0.43
2022-10-31T02:56:29.889Z,-0.43
2022-10-31T02:59:56.868Z,-0.41
2022-10-31T03:03:25.944Z,-0.39
2022-10-31T03:06:56.628Z,-0.35
2022-10-31T03:10:29.707Z,-0.31
2022-10-31T03:13:58.024Z,-0.30
2022-10-31T03:17:27.436Z,-0.28
2022-10-31T03:20:52.707Z,-0.27
2022-10-31T03:24:18.186Z,-0.42
2022-10-31T03:27:44.141Z,-0.25
2022-10-31T03:31:08.433Z,-0.22
2022-10-31T03:34:32.347Z,-0.19
2022-10-31T03:37:56.495Z,-0.29
2022-10-31T03:41:27.433Z,-0.25
2022-10-31T03:44:54.373Z,-0.24
2022-10-31T03:48:18.397Z,-0.19
2022-10-31T03:51:46.912Z,-0.28
2022-10-31T03:55:13.024Z,-0.24
2022-10-31T03:58:40.477Z,-0.38
2022-10-31T04:02:09.126Z,-0.32
2022-10-31T04:05:32.969Z,-0.31
2022-10-31T04:08:58.848Z,-0.28
2022-10-31T04:12:21.479Z,-0.70
2022-10-31T04:15:47.025Z,-0.42
2022-10-31T04:19:09.403Z,-0.32
2022-10-31T04:22:31.354Z,-0.39
2022-10-31T04:25:53.222Z,-0.36
2022-10-31T04:29:14.961Z,-0.38
2022-10-31T04:32:39.210Z,-0.45
2022-10-31T04:36:01.279Z,-0.44
2022-10-31T04:39:26.581Z,-0.44
2022-10-31T04:42:48.465Z,-0.46
2022-10-31T04:46:10.304Z,-0.47
2022-10-31T04:49:33.503Z,-0.51
2022-10-31T04:52:55.543Z,-0.53
2022-10-31T04:56:17.547Z,-0.53
2022-10-31T04:59:39.326Z,-0.57
2022-10-31T05:03:01.359Z,-0.62
2022-10-31T05:06:27.885Z,-0.66
2022-10-31T05:09:49.694Z,-0.68
2022-10-31T05:13:11.759Z,-0.66
2022-10-31T05:16:33.599Z,-0.65
2022-10-31T05:19:55.503Z,-0.72
2022-10-31T05:23:19.279Z,-0.91
2022-10-31T05:26:41.424Z,-0.84
2022-10-31T05:30:03.597Z,-0.76
2022-10-31T05:33:25.571Z,-0.79
2022-10-31T05:36:47.547Z,-0.82
2022-10-31T05:40:13.282Z,-0.84
2022-10-31T05:43:35.057Z,-0.87
2022-10-31T05:46:56.898Z,-0.87
2022-10-31T05:50:19.262Z,-0.87
2022-10-31T05:53:43.526Z,-0.94
2022-10-31T05:57:07.230Z,-0.97
2022-10-31T06:00:30.237Z,-0.99
2022-10-31T06:03:51.811Z,-0.95
2022-10-31T06:07:14.419Z,-0.94
2022-10-31T06:10:36.482Z,-0.88
2022-10-31T06:13:59.609Z,-0.86
2022-10-31T06:17:21.191Z,-0.81
2022-10-31T06:20:42.897Z,-0.83
2022-10-31T06:24:05.120Z,-0.73
2022-10-31T06:27:27.244Z,-0.75
2022-10-31T06:30:50.394Z,-0.59
2022-10-31T06:34:12.053Z,-0.57
2022-10-31T06:37:33.965Z,-0.50
2022-10-31T06:40:56.137Z,-0.66
2022-10-31T06:44:18.324Z,-0.37
2022-10-31T06:48:03.597Z,-0.29
2022-10-31T06:51:23.210Z,-0.18
2022-10-31T06:54:45.107Z,-0.10
2022-10-31T06:58:07.331Z,-0.15
2022-10-31T07:01:29.563Z,0.06
2022-10-31T07:04:52.705Z,0.04
2022-10-31T07:08:16.117Z,0.21
2022-10-31T07:11:37.719Z,0.20
2022-10-31T07:14:59.640Z,0.36
2022-10-31T07:18:22.184Z,0.32
2022-10-31T07:21:45.508Z,0.52
2022-10-31T07:25:07.774Z,0.62
2022-10-31T07:28:30.271Z,0.74
2022-10-31T07:31:52.356Z,0.74
2022-10-31T07:35:15.951Z,0.93
2022-10-31T07:38:39.434Z,1.04
2022-10-31T07:42:01.673Z,1.18
2022-10-31T07:45:23.784Z,1.30
2022-10-31T07:48:46.242Z,1.32
2022-10-31T07:52:08.300Z,1.52
2022-10-31T07:55:31.876Z,1.63
2022-10-31T07:58:53.619Z,1.71
2022-10-31T08:02:15.518Z,1.82
2022-10-31T08:05:37.711Z,1.90
2022-10-31T08:08:59.588Z,1.97
2022-10-31T08:12:24.634Z,2.12
2022-10-31T08:15:51.147Z,2.21
2022-10-31T08:19:13.222Z,2.36
2022-10-31T08:22:37.524Z,2.51
2022-10-31T08:26:01.594Z,2.67
2022-10-31T08:29:24.825Z,2.79
2022-10-31T08:32:46.396Z,2.95
2022-10-31T08:36:08.553Z,3.06
2022-10-31T08:39:30.425Z,3.17
2022-10-31T08:42:59.457Z,3.24
2022-10-31T08:46:22.960Z,3.43
2022-10-31T08:49:44.531Z,3.57
2022-10-31T08:53:08.598Z,3.65
2022-10-31T08:56:30.511Z,3.77
2022-10-31T08:59:52.282Z,3.87
2022-10-31T09:03:19.212Z,3.92
2022-10-31T09:06:50.480Z,3.94
2022-10-31T09:10:22.518Z,3.94
2022-10-31T09:13:44.526Z,3.98
2022-10-31T09:17:06.386Z,4.03
2022-10-31T09:20:30.027Z,4.09
2022-10-31T09:23:51.775Z,4.03
2022-10-31T09:27:13.754Z,4.31
2022-10-31T09:30:37.162Z,4.39
2022-10-31T09:33:58.926Z,4.46
2022-10-31T09:37:22.178Z,4.52
2022-10-31T09:40:45.942Z,4.57
2022-10-31T09:44:14.036Z,4.63
2022-10-31T09:47:50.165Z,4.72
2022-10-31T09:51:17.590Z,4.83
2022-10-31T09:54:47.196Z,4.77
2022-10-31T09:58:17.783Z,5.00
2022-10-31T10:01:47.214Z,5.11
2022-10-31T10:05:13.896Z,5.20
2022-10-31T10:08:37.825Z,5.31
2022-10-31T10:12:12.446Z,5.42
2022-10-31T10:15:45.019Z,5.53
2022-10-31T10:19:22.962Z,5.59
2022-10-31T10:22:53.190Z,5.61
2022-10-31T10:26:20.337Z,5.73
2022-10-31T10:29:51.574Z,5.78
2022-10-31T10:33:16.653Z,5.82
2022-10-31T10:36:42.439Z,5.92
2022-10-31T10:40:10.104Z,5.78
2022-10-31T10:43:36.567Z,6.04
2022-10-31T10:47:21.638Z,6.09
2022-10-31T10:50:48.750Z,6.07
2022-10-31T10:54:23.122Z,6.20
2022-10-31T10:57:56.236Z,6.25
2022-10-31T11:01:18.404Z,6.30
2022-10-31T11:04:43.690Z,6.35
2022-10-31T11:08:06.275Z,6.38
2022-10-31T11:11:31.203Z,6.40
2022-10-31T11:14:56.950Z,6.37
2022-10-31T11:21:54.179Z,6.50
2022-10-31T11:25:24.031Z,6.52
2022-10-31T11:28:45.839Z,6.52
2022-10-31T11:32:07.452Z,6.55
2022-10-31T11:35:31.269Z,6.56
2022-10-31T11:38:55.899Z,6.58
2022-10-31T11:42:17.744Z,6.65
2022-10-31T11:45:39.714Z,6.67
2022-10-31T11:49:02.932Z,6.70
2022-10-31T11:52:27.898Z,6.71
2022-10-31T11:56:04.613Z,6.76
2022-10-31T11:59:30.351Z,6.72
2022-10-31T12:02:53.008Z,6.80
2022-10-31T12:06:20.826Z,6.65
2022-10-31T12:09:43.482Z,6.79
2022-10-31T12:13:22.842Z,6.81
2022-10-31T12:16:52.778Z,6.83
2022-10-31T12:20:26.332Z,6.82
2022-10-31T12:23:59.289Z,6.82
2022-10-31T12:27:35.199Z,6.80
2022-10-31T12:31:08.479Z,6.82
2022-10-31T12:34:59.768Z,6.70
2022-10-31T12:38:53.835Z,6.87
2022-10-31T12:42:26.472Z,6.93
2022-10-31T12:45:55.874Z,6.95
2022-10-31T12:49:37.286Z,6.94
2022-10-31T12:53:10.391Z,6.93
2022-10-31T12:56:46.023Z,6.94
2022-10-31T13:00:16.766Z,6.85
2022-10-31T13:03:48.065Z,6.85
2022-10-31T13:07:16.467Z,6.90
2022-10-31T13:10:45.000Z,6.86
2022-10-31T13:14:12.735Z,6.76
2022-10-31T13:17:38.094Z,6.80
2022-10-31T13:21:04.154Z,6.72
2022-10-31T13:24:33.048Z,6.74
2022-10-31T13:27:59.474Z,6.70
2022-10-31T13:31:21.465Z,6.63
2022-10-31T13:34:47.170Z,6.60
2022-10-31T13:38:20.905Z,6.53
2022-10-31T13:41:49.803Z,6.46
2022-10-31T13:45:16.116Z,6.41
2022-10-31T13:48:43.978Z,6.33
2022-10-31T13:52:17.007Z,6.27
2022-10-31T13:55:41.867Z,6.20
2022-10-31T13:59:20.931Z,6.16
2022-10-31T14:02:50.120Z,6.06
2022-10-31T14:06:13.635Z,6.01
2022-10-31T14:09:39.303Z,5.95
2022-10-31T14:13:08.097Z,5.87
2022-10-31T14:16:33.665Z,5.83
2022-10-31T14:20:02.050Z,5.73
2022-10-31T14:23:41.419Z,5.63
2022-10-31T14:27:05.958Z,5.62
2022-10-31T14:30:30.124Z,5.50
2022-10-31T14:33:54.558Z,5.52
2022-10-31T14:37:36.953Z,5.39
2022-10-31T14:41:21.160Z,5.46
2022-10-31T14:45:11.185Z,5.42
2022-10-31T14:48:54.509Z,5.38
2022-10-31T14:52:22.693Z,5.33
2022-10-31T14:55:49.857Z,5.31
2022-10-31T14:59:17.117Z,5.26
2022-10-31T15:02:48.470Z,5.16
2022-10-31T15:06:15.542Z,5.20
2022-10-31T15:09:42.072Z,5.16
2022-10-31T15:13:13.017Z,5.11
2022-10-31T15:16:45.974Z,5.09
2022-10-31T15:20:09.799Z,5.02
2022-10-31T15:23:34.083Z,4.99
2022-10-31T15:27:03.832Z,5.00
2022-10-31T15:30:29.733Z,4.96
2022-10-31T15:33:54.334Z,4.94
2022-10-31T15:37:19.036Z,4.92
2022-10-31T15:40:42.092Z,4.88
2022-10-31T15:44:17.895Z,4.89
2022-10-31T15:47:42.038Z,4.90
2022-10-31T15:51:06.534Z,4.75
2022-10-31T15:54:30.010Z,4.93
2022-10-31T15:57:58.086Z,4.97
2022-10-31T16:01:28.352Z,4.99
2022-10-31T16:04:53.837Z,4.97
2022-10-31T16:08:28.778Z,5.04
2022-10-31T16:11:52.459Z,5.02
2022-10-31T16:15:17.774Z,5.05
2022-10-31T16:18:44.527Z,5.04
2022-10-31T16:22:09.889Z,5.07
2022-10-31T16:25:39.256Z,5.01
2022-10-31T16:29:05.405Z,5.11
2022-10-31T16:32:31.515Z,5.12
2022-10-31T16:36:09.481Z,5.18
2022-10-31T16:39:38.630Z,5.18
2022-10-31T16:43:03.338Z,5.24
2022-10-31T16:46:27.420Z,5.26
2022-10-31T16:49:52.329Z,5.30
2022-10-31T16:53:17.537Z,5.33
2022-10-31T16:56:41.316Z,5.31
2022-10-31T17:00:04.914Z,5.37
2022-10-31T17:03:28.671Z,5.36
2022-10-31T17:06:51.633Z,5.38
2022-10-31T17:10:17.912Z,5.41
2022-10-31T17:13:41.339Z,5.44
2022-10-31T17:17:04.101Z,5.45
2022-10-31T17:20:30.539Z,5.49
2022-10-31T17:23:54.107Z,5.50
2022-10-31T17:27:19.627Z,5.54
2022-10-31T17:30:43.611Z,5.46
2022-10-31T17:34:07.083Z,5.58
2022-10-31T17:37:30.046Z,5.61
2022-10-31T17:40:55.058Z,5.63
2022-10-31T17:44:20.067Z,5.63
2022-10-31T17:47:43.133Z,5.66
2022-10-31T17:51:07.724Z,5.59
2022-10-31T17:54:30.480Z,5.68
2022-10-31T17:57:53.127Z,5.71
2022-10-31T18:01:19.166Z,5.72
2022-10-31T18:04:42.120Z,5.53
2022-10-31T18:08:06.109Z,5.75
2022-10-31T18:11:28.865Z,5.77
2022-10-31T18:14:51.309Z,5.79
2022-10-31T18:18:15.704Z,5.78
2022-10-31T18:21:38.356Z,5.81
2022-10-31T18:25:02.291Z,5.79
2022-10-31T18:28:25.705Z,5.84
2022-10-31T18:31:49.386Z,5.78
2022-10-31T18:35:14.498Z,5.87
2022-10-31T18:38:40.938Z,5.89
2022-10-31T18:42:03.695Z,5.90
2022-10-31T18:45:45.735Z,5.91
2022-10-31T18:49:09.170Z,5.93
2022-10-31T18:52:34.490Z,5.76
2022-10-31T18:55:57.755Z,5.94
2022-10-31T18:59:21.124Z,5.94
2022-10-31T19:02:43.673Z,5.95
2022-10-31T19:06:07.760Z,5.96
2022-10-31T19:09:32.456Z,5.99
2022-10-31T19:12:55.522Z,5.99
2022-10-31T19:16:19.098Z,6.02
2022-10-31T19:19:42.155Z,6.02
2022-10-31T19:23:05.170Z,6.04
2022-10-31T19:26:31.044Z,6.06
2022-10-31T19:29:54.106Z,6.08
2022-10-31T19:33:17.276Z,6.09
2022-10-31T19:36:40.845Z,6.10
2022-10-31T19:40:04.216Z,6.10
2022-10-31T19:43:29.840Z,6.14
2022-10-31T19:46:53.939Z,6.14
2022-10-31T19:50:17.399Z,6.15
2022-10-31T19:53:41.434Z,6.15
2022-10-31T19:57:04.346Z,6.14
2022-10-31T20:00:31.707Z,6.18
2022-10-31T20:03:54.518Z,6.20
2022-10-31T20:07:17.426Z,6.22
2022-10-31T20:10:40.382Z,6.24
2022-10-31T20:14:03.345Z,6.26
2022-10-31T20:17:27.661Z,6.27
2022-10-31T20:20:51.305Z,6.29
2022-10-31T20:24:15.396Z,6.28
2022-10-31T20:27:39.662Z,6.23
2022-10-31T20:31:03.258Z,6.35
2022-10-31T20:34:28.665Z,6.35
2022-10-31T20:37:51.640Z,6.36
2022-10-31T20:41:15.832Z,6.37
2022-10-31T20:44:38.477Z,6.36
2022-10-31T20:48:01.561Z,6.37
2022-10-31T20:51:29.668Z,6.38
2022-10-31T20:54:52.168Z,6.41
2022-10-31T20:58:15.231Z,6.35
2022-10-31T21:01:38.902Z,6.46
2022-10-31T21:05:02.071Z,6.46
2022-10-31T21:08:26.673Z,6.47
2022-10-31T21:11:49.529Z,6.49
2022-10-31T21:15:14.333Z,6.50
2022-10-31T21:18:37.502Z,6.43
2022-10-31T21:22:00.664Z,6.47
2022-10-31T21:25:25.159Z,6.50
2022-10-31T21:28:47.915Z,6.55
2022-10-31T21:32:10.978Z,6.56
2022-10-31T21:35:33.834Z,6.56
2022-10-31T21:38:58.532Z,6.58
2022-10-31T21:42:24.771Z,6.61
2022-10-31T21:45:48.654Z,6.64
2022-10-31T21:49:14.992Z,6.65
2022-10-31T21:52:37.642Z,6.67
2022-10-31T21:56:04.903Z,6.69
2022-10-31T21:59:29.196Z,6.70
2022-10-31T22:02:52.264Z,6.71
2022-10-31T22:06:18.901Z,6.71
2022-10-31T22:09:42.480Z,6.70
2022-10-31T22:13:05.175Z,6.68
2022-10-31T22:16:31.192Z,6.67
2022-10-31T22:19:55.045Z,6.66
2022-10-31T22:23:18.104Z,6.55
2022-10-31T22:26:41.278Z,6.64
2022-10-31T22:30:03.924Z,6.64
2022-10-31T22:33:28.214Z,6.64
2022-10-31T22:36:51.276Z,6.66
2022-10-31T22:40:14.348Z,6.67
2022-10-31T22:43:37.618Z,6.69
2022-10-31T22:47:00.670Z,6.68
2022-10-31T22:50:25.478Z,6.69
2022-10-31T22:53:49.146Z,6.73
2022-10-31T22:57:12.010Z,6.75
2022-10-31T23:00:35.395Z,6.74
2022-10-31T23:03:58.575Z,6.75
2022-10-31T23:07:23.959Z,6.75
2022-10-31T23:10:47.126Z,6.75
2022-10-31T23:14:14.177Z,6.66
2022-10-31T23:17:37.250Z,6.75
2022-10-31T23:21:00.408Z,6.75
2022-10-31T23:24:26.847Z,6.76
2022-10-31T23:27:48.479Z,6.76
2022-10-31T23:31:12.050Z,6.73
2022-10-31T23:34:35.625Z,6.78
2022-10-31T23:37:59.046Z,6.77
2022-10-31T23:41:23.803Z,6.79
2022-10-31T23:44:47.292Z,6.81
2022-10-31T23:48:10.231Z,6.81
2022-10-31T23:51:33.394Z,6.84
2022-10-31T23:54:56.252Z,6.82
2022-10-31T23:58:20.746Z,6.89
